sensor_id;sensor_type;location;lat;lon;timestamp;P1;durP1;ratioP1;P2;durP2;ratioP2
56130;SDS011;42000;44.774;20.506;2023-01-09T06:14:04;25.23;;;12.77;;
56130;SDS011;42000;44.774;20.506;2023-01-09T06:16:31;23.38;;;13.18;;
56130;SDS011;42000;44.774;20.506;2023-01-09T06:18:57;24.42;;;12.02;;
56130;SDS011;42000;44.774;20.506;2023-01-09T06:21:23;22.65;;;12.13;;
56130;SDS011;42000;44.774;20.506;2023-01-09T06:23:55;23.65;;;11.82;;
56130;SDS011;42000;44.774;20.506;2023-01-09T06:26:21;23.23;;;12.60;;
56130;SDS011;42000;44.774;20.506;2023-01-09T06:28:47;20.23;;;11.73;;
56130;SDS011;42000;44.774;20.506;2023-01-09T06:31:13;21.52;;;12.55;;
56130;SDS011;42000;44.774;20.506;2023-01-09T06:33:40;20.00;;;10.75;;
56130;SDS011;42000;44.774;20.506;2023-01-09T06:36:06;24.67;;;12.15;;
56130;SDS011;42000;44.774;20.506;2023-01-09T06:38:32;22.48;;;12.25;;
56130;SDS011;42000;44.774;20.506;2023-01-09T06:40:58;22.05;;;12.27;;
56130;SDS011;42000;44.774;20.506;2023-01-09T06:43:24;23.35;;;11.85;;
56130;SDS011;42000;44.774;20.506;2023-01-09T06:45:50;21.38;;;11.40;;
56130;SDS011;42000;44.774;20.506;2023-01-09T06:48:16;21.92;;;12.23;;
56130;SDS011;42000;44.774;20.506;2023-01-09T06:50:42;25.02;;;12.20;;
56130;SDS011;42000;44.774;20.506;2023-01-09T06:53:09;23.95;;;10.80;;
56130;SDS011;42000;44.774;20.506;2023-01-09T06:55:35;19.27;;;11.18;;
56130;SDS011;42000;44.774;20.506;2023-01-09T06:58:01;18.60;;;11.05;;
56130;SDS011;42000;44.774;20.506;2023-01-09T07:00:28;20.75;;;11.38;;
56130;SDS011;42000;44.774;20.506;2023-01-09T07:02:55;25.77;;;11.82;;
56130;SDS011;42000;44.774;20.506;2023-01-09T07:05:21;16.95;;;10.68;;
56130;SDS011;42000;44.774;20.506;2023-01-09T07:07:47;19.80;;;11.07;;
56130;SDS011;42000;44.774;20.506;2023-01-09T07:10:13;19.58;;;10.98;;
56130;SDS011;42000;44.774;20.506;2023-01-09T07:12:39;21.98;;;10.50;;
56130;SDS011;42000;44.774;20.506;2023-01-09T07:15:05;22.83;;;11.15;;
56130;SDS011;42000;44.774;20.506;2023-01-09T07:17:32;20.80;;;11.60;;
56130;SDS011;42000;44.774;20.506;2023-01-09T07:19:58;20.50;;;11.32;;
56130;SDS011;42000;44.774;20.506;2023-01-09T07:22:24;20.35;;;11.00;;
56130;SDS011;42000;44.774;20.506;2023-01-09T07:24:50;22.45;;;11.30;;
56130;SDS011;42000;44.774;20.506;2023-01-09T07:27:16;22.92;;;11.77;;
56130;SDS011;42000;44.774;20.506;2023-01-09T07:29:42;19.42;;;11.23;;
56130;SDS011;42000;44.774;20.506;2023-01-09T07:32:08;20.25;;;10.63;;
56130;SDS011;42000;44.774;20.506;2023-01-09T07:34:34;22.30;;;10.57;;
56130;SDS011;42000;44.774;20.506;2023-01-09T07:37:00;20.70;;;11.63;;
56130;SDS011;42000;44.774;20.506;2023-01-09T07:39:26;18.63;;;10.63;;
56130;SDS011;42000;44.774;20.506;2023-01-09T07:41:52;20.15;;;10.65;;
56130;SDS011;42000;44.774;20.506;2023-01-09T07:44:18;19.45;;;11.27;;
56130;SDS011;42000;44.774;20.506;2023-01-09T07:46:45;22.58;;;11.55;;
56130;SDS011;42000;44.774;20.506;2023-01-09T07:49:11;19.73;;;10.30;;
56130;SDS011;42000;44.774;20.506;2023-01-09T07:51:37;15.75;;;9.80;;
56130;SDS011;42000;44.774;20.506;2023-01-09T07:54:07;21.05;;;10.40;;
56130;SDS011;42000;44.774;20.506;2023-01-09T07:56:34;18.20;;;10.15;;
56130;SDS011;42000;44.774;20.506;2023-01-09T07:59:00;16.95;;;9.45;;
56130;SDS011;42000;44.774;20.506;2023-01-09T08:01:26;19.35;;;9.70;;
56130;SDS011;42000;44.774;20.506;2023-01-09T08:03:52;16.40;;;9.32;;
56130;SDS011;42000;44.774;20.506;2023-01-09T08:06:18;22.38;;;10.65;;
56130;SDS011;42000;44.774;20.506;2023-01-09T08:08:44;21.77;;;11.73;;
56130;SDS011;42000;44.774;20.506;2023-01-09T08:11:10;17.15;;;10.55;;
56130;SDS011;42000;44.774;20.506;2023-01-09T08:13:36;22.15;;;11.93;;
56130;SDS011;42000;44.774;20.506;2023-01-09T08:16:02;20.38;;;10.68;;
56130;SDS011;42000;44.774;20.506;2023-01-09T08:18:28;21.95;;;12.02;;
56130;SDS011;42000;44.774;20.506;2023-01-09T08:20:54;22.08;;;11.25;;
56130;SDS011;42000;44.774;20.506;2023-01-09T08:23:20;25.88;;;10.63;;
56130;SDS011;42000;44.774;20.506;2023-01-09T08:25:46;20.75;;;10.35;;
56130;SDS011;42000;44.774;20.506;2023-01-09T08:28:12;21.02;;;11.57;;
56130;SDS011;42000;44.774;20.506;2023-01-09T08:30:38;19.27;;;10.88;;
56130;SDS011;42000;44.774;20.506;2023-01-09T08:33:05;18.45;;;10.02;;
56130;SDS011;42000;44.774;20.506;2023-01-09T08:35:31;20.65;;;10.60;;
56130;SDS011;42000;44.774;20.506;2023-01-09T08:37:57;21.25;;;11.23;;
56130;SDS011;42000;44.774;20.506;2023-01-09T08:40:23;18.48;;;10.80;;
56130;SDS011;42000;44.774;20.506;2023-01-09T08:42:49;22.08;;;11.25;;
56130;SDS011;42000;44.774;20.506;2023-01-09T08:45:33;17.42;;;9.95;;
56130;SDS011;42000;44.774;20.506;2023-01-09T08:48:18;17.98;;;10.77;;
56130;SDS011;42000;44.774;20.506;2023-01-09T08:50:44;21.33;;;10.80;;
56130;SDS011;42000;44.774;20.506;2023-01-09T08:53:10;19.40;;;10.65;;
56130;SDS011;42000;44.774;20.506;2023-01-09T08:55:36;20.30;;;11.48;;
56130;SDS011;42000;44.774;20.506;2023-01-09T08:58:02;21.10;;;11.32;;
56130;SDS011;42000;44.774;20.506;2023-01-09T09:00:28;16.95;;;10.50;;
56130;SDS011;42000;44.774;20.506;2023-01-09T09:02:55;21.83;;;11.57;;
56130;SDS011;42000;44.774;20.506;2023-01-09T09:05:22;20.90;;;11.15;;
56130;SDS011;42000;44.774;20.506;2023-01-09T09:07:50;21.80;;;10.52;;
56130;SDS011;42000;44.774;20.506;2023-01-09T09:10:18;23.40;;;11.65;;
56130;SDS011;42000;44.774;20.506;2023-01-09T09:12:46;21.08;;;11.25;;
56130;SDS011;42000;44.774;20.506;2023-01-09T09:15:13;16.60;;;10.43;;
56130;SDS011;42000;44.774;20.506;2023-01-09T09:17:52;16.95;;;9.52;;
56130;SDS011;42000;44.774;20.506;2023-01-09T09:20:19;18.38;;;10.30;;
56130;SDS011;42000;44.774;20.506;2023-01-09T09:22:45;19.08;;;10.88;;
56130;SDS011;42000;44.774;20.506;2023-01-09T09:25:12;18.67;;;10.82;;
56130;SDS011;42000;44.774;20.506;2023-01-09T09:27:38;18.58;;;10.25;;
56130;SDS011;42000;44.774;20.506;2023-01-09T09:30:04;19.10;;;10.60;;
56130;SDS011;42000;44.774;20.506;2023-01-09T09:32:30;21.33;;;10.45;;
56130;SDS011;42000;44.774;20.506;2023-01-09T09:34:57;18.80;;;10.07;;
56130;SDS011;42000;44.774;20.506;2023-01-09T09:37:23;17.40;;;9.85;;
56130;SDS011;42000;44.774;20.506;2023-01-09T09:39:49;18.88;;;10.88;;
56130;SDS011;42000;44.774;20.506;2023-01-09T09:42:20;19.83;;;11.55;;
56130;SDS011;42000;44.774;20.506;2023-01-09T09:55:37;15.98;;;10.23;;
56130;SDS011;42000;44.774;20.506;2023-01-09T09:58:10;17.55;;;10.88;;
56130;SDS011;42000;44.774;20.506;2023-01-09T10:00:37;15.85;;;9.60;;
56130;SDS011;42000;44.774;20.506;2023-01-09T10:03:05;20.27;;;10.70;;
56130;SDS011;42000;44.774;20.506;2023-01-09T10:05:41;20.35;;;11.07;;
56130;SDS011;42000;44.774;20.506;2023-01-09T10:10:45;21.13;;;10.57;;
56130;SDS011;42000;44.774;20.506;2023-01-09T10:13:15;22.30;;;10.98;;
56130;SDS011;42000;44.774;20.506;2023-01-09T10:16:06;19.98;;;10.77;;
56130;SDS011;42000;44.774;20.506;2023-01-09T10:26:42;22.58;;;11.55;;
56130;SDS011;42000;44.774;20.506;2023-01-09T10:39:20;18.15;;;10.68;;
56130;SDS011;42000;44.774;20.506;2023-01-09T10:44:15;22.15;;;12.25;;
56130;SDS011;42000;44.774;20.506;2023-01-09T10:46:44;25.23;;;12.50;;
56130;SDS011;42000;44.774;20.506;2023-01-09T10:49:14;25.02;;;13.13;;
56130;SDS011;42000;44.774;20.506;2023-01-09T10:51:51;26.55;;;14.25;;
56130;SDS011;42000;44.774;20.506;2023-01-09T10:54:18;21.42;;;13.25;;
56130;SDS011;42000;44.774;20.506;2023-01-09T10:57:06;29.90;;;15.00;;
56130;SDS011;42000;44.774;20.506;2023-01-09T10:59:35;31.67;;;15.20;;
56130;SDS011;42000;44.774;20.506;2023-01-09T11:02:01;29.27;;;15.55;;
56130;SDS011;42000;44.774;20.506;2023-01-09T11:04:31;26.45;;;15.85;;
56130;SDS011;42000;44.774;20.506;2023-01-09T11:07:16;30.65;;;16.17;;
56130;SDS011;42000;44.774;20.506;2023-01-09T11:09:59;30.45;;;16.45;;
56130;SDS011;42000;44.774;20.506;2023-01-09T11:12:26;31.45;;;17.85;;
56130;SDS011;42000;44.774;20.506;2023-01-09T11:14:52;27.73;;;16.35;;
56130;SDS011;42000;44.774;20.506;2023-01-09T11:17:20;32.47;;;18.17;;
56130;SDS011;42000;44.774;20.506;2023-01-09T11:20:02;33.08;;;17.98;;
56130;SDS011;42000;44.774;20.506;2023-01-09T11:22:29;36.33;;;19.67;;
56130;SDS011;42000;44.774;20.506;2023-01-09T11:25:10;34.17;;;18.88;;
56130;SDS011;42000;44.774;20.506;2023-01-09T11:27:36;36.60;;;19.05;;
56130;SDS011;42000;44.774;20.506;2023-01-09T11:30:03;37.92;;;20.65;;
56130;SDS011;42000;44.774;20.506;2023-01-09T11:32:30;33.45;;;18.48;;
56130;SDS011;42000;44.774;20.506;2023-01-09T11:34:56;36.08;;;20.20;;
56130;SDS011;42000;44.774;20.506;2023-01-09T11:37:31;34.28;;;18.50;;
56130;SDS011;42000;44.774;20.506;2023-01-09T11:39:58;33.67;;;19.85;;
56130;SDS011;42000;44.774;20.506;2023-01-09T11:42:28;34.65;;;18.52;;
56130;SDS011;42000;44.774;20.506;2023-01-09T11:45:17;36.10;;;19.25;;
56130;SDS011;42000;44.774;20.506;2023-01-09T11:47:44;32.60;;;18.27;;
56130;SDS011;42000;44.774;20.506;2023-01-09T11:50:29;33.08;;;16.75;;
56130;SDS011;42000;44.774;20.506;2023-01-09T11:55:37;32.97;;;17.77;;
56130;SDS011;42000;44.774;20.506;2023-01-09T11:58:03;32.20;;;17.17;;
56130;SDS011;42000;44.774;20.506;2023-01-09T12:00:37;32.50;;;18.13;;
56130;SDS011;42000;44.774;20.506;2023-01-09T12:08:24;34.78;;;19.58;;
56130;SDS011;42000;44.774;20.506;2023-01-09T12:16:00;32.65;;;19.73;;
56130;SDS011;42000;44.774;20.506;2023-01-09T12:21:30;30.15;;;17.50;;
56130;SDS011;42000;44.774;20.506;2023-01-09T12:29:14;41.50;;;22.80;;
56130;SDS011;42000;44.774;20.506;2023-01-09T12:47:50;36.65;;;19.13;;
56130;SDS011;42000;44.774;20.506;2023-01-09T12:50:22;31.90;;;19.15;;
56130;SDS011;42000;44.774;20.506;2023-01-09T12:55:26;28.80;;;16.83;;
56130;SDS011;42000;44.774;20.506;2023-01-09T12:57:54;37.30;;;17.33;;
56130;SDS011;42000;44.774;20.506;2023-01-09T13:00:33;26.70;;;15.18;;
56130;SDS011;42000;44.774;20.506;2023-01-09T13:04:04;27.20;;;15.88;;
56130;SDS011;42000;44.774;20.506;2023-01-09T13:05:57;26.63;;;15.65;;
56130;SDS011;42000;44.774;20.506;2023-01-09T13:08:29;24.15;;;14.60;;
56130;SDS011;42000;44.774;20.506;2023-01-09T13:13:43;24.25;;;14.48;;
56130;SDS011;42000;44.774;20.506;2023-01-09T13:16:12;26.50;;;14.57;;
56130;SDS011;42000;44.774;20.506;2023-01-09T13:19:02;25.83;;;14.25;;
56130;SDS011;42000;44.774;20.506;2023-01-09T13:21:25;24.73;;;14.27;;
56130;SDS011;42000;44.774;20.506;2023-01-09T13:26:54;26.00;;;16.08;;
56130;SDS011;42000;44.774;20.506;2023-01-09T13:29:23;29.08;;;16.65;;
56130;SDS011;42000;44.774;20.506;2023-01-09T13:31:56;32.20;;;17.77;;
56130;SDS011;42000;44.774;20.506;2023-01-09T13:34:26;35.28;;;19.42;;
56130;SDS011;42000;44.774;20.506;2023-01-09T13:36:53;37.25;;;18.55;;
56130;SDS011;42000;44.774;20.506;2023-01-09T13:39:26;30.42;;;17.17;;
56130;SDS011;42000;44.774;20.506;2023-01-09T13:41:56;28.35;;;14.90;;
56130;SDS011;42000;44.774;20.506;2023-01-09T13:44:41;26.45;;;15.02;;
56130;SDS011;42000;44.774;20.506;2023-01-09T13:47:14;25.77;;;14.55;;
56130;SDS011;42000;44.774;20.506;2023-01-09T13:59:50;22.75;;;12.85;;
56130;SDS011;42000;44.774;20.506;2023-01-09T14:10:37;24.27;;;13.18;;
56130;SDS011;42000;44.774;20.506;2023-01-09T14:13:19;30.67;;;16.60;;
56130;SDS011;42000;44.774;20.506;2023-01-09T14:15:45;33.03;;;18.63;;
56130;SDS011;42000;44.774;20.506;2023-01-09T14:18:14;35.58;;;19.88;;
56130;SDS011;42000;44.774;20.506;2023-01-09T14:20:42;40.75;;;21.02;;
56130;SDS011;42000;44.774;20.506;2023-01-09T14:23:18;39.75;;;20.60;;
56130;SDS011;42000;44.774;20.506;2023-01-09T14:25:46;35.70;;;20.38;;
56130;SDS011;42000;44.774;20.506;2023-01-09T14:28:31;39.47;;;19.73;;
56130;SDS011;42000;44.774;20.506;2023-01-09T14:33:27;34.20;;;19.98;;
56130;SDS011;42000;44.774;20.506;2023-01-09T14:38:33;32.28;;;16.13;;
56130;SDS011;42000;44.774;20.506;2023-01-09T14:41:02;37.25;;;19.95;;
56130;SDS011;42000;44.774;20.506;2023-01-09T14:46:07;49.53;;;26.83;;
56130;SDS011;42000;44.774;20.506;2023-01-09T14:48:37;57.80;;;30.08;;
56130;SDS011;42000;44.774;20.506;2023-01-09T14:51:08;60.75;;;30.45;;
56130;SDS011;42000;44.774;20.506;2023-01-09T14:56:04;54.88;;;29.27;;
56130;SDS011;42000;44.774;20.506;2023-01-09T14:58:35;52.92;;;27.55;;
56130;SDS011;42000;44.774;20.506;2023-01-09T15:06:15;48.78;;;26.20;;
56130;SDS011;42000;44.774;20.506;2023-01-09T15:08:43;50.55;;;25.67;;
56130;SDS011;42000;44.774;20.506;2023-01-09T15:11:10;48.20;;;24.60;;
56130;SDS011;42000;44.774;20.506;2023-01-09T15:13:42;49.75;;;24.73;;
56130;SDS011;42000;44.774;20.506;2023-01-09T15:16:19;51.55;;;26.60;;
56130;SDS011;42000;44.774;20.506;2023-01-09T15:18:47;46.83;;;25.45;;
56130;SDS011;42000;44.774;20.506;2023-01-09T15:21:18;47.70;;;25.33;;
56130;SDS011;42000;44.774;20.506;2023-01-09T15:23:46;50.83;;;25.30;;
56130;SDS011;42000;44.774;20.506;2023-01-09T15:26:30;48.80;;;26.85;;
56130;SDS011;42000;44.774;20.506;2023-01-09T15:29:00;54.85;;;26.10;;
56130;SDS011;42000;44.774;20.506;2023-01-09T15:31:26;47.72;;;26.00;;
56130;SDS011;42000;44.774;20.506;2023-01-09T15:33:53;51.38;;;27.42;;
56130;SDS011;42000;44.774;20.506;2023-01-09T15:36:23;48.65;;;26.30;;
56130;SDS011;42000;44.774;20.506;2023-01-09T15:38:50;46.97;;;25.80;;
56130;SDS011;42000;44.774;20.506;2023-01-09T15:41:24;50.47;;;26.77;;
56130;SDS011;42000;44.774;20.506;2023-01-09T15:44:22;52.65;;;26.88;;
56130;SDS011;42000;44.774;20.506;2023-01-09T15:46:50;55.42;;;28.75;;
56130;SDS011;42000;44.774;20.506;2023-01-09T15:49:17;51.08;;;27.10;;
56130;SDS011;42000;44.774;20.506;2023-01-09T15:51:44;62.85;;;29.98;;
56130;SDS011;42000;44.774;20.506;2023-01-09T15:54:44;54.85;;;28.20;;
56130;SDS011;42000;44.774;20.506;2023-01-09T15:59:49;63.58;;;30.75;;
56130;SDS011;42000;44.774;20.506;2023-01-09T16:02:15;63.35;;;31.88;;
56130;SDS011;42000;44.774;20.506;2023-01-09T16:05:04;53.35;;;29.13;;
56130;SDS011;42000;44.774;20.506;2023-01-09T16:07:30;58.13;;;29.77;;
56130;SDS011;42000;44.774;20.506;2023-01-09T16:09:56;52.83;;;25.98;;
56130;SDS011;42000;44.774;20.506;2023-01-09T16:12:23;45.47;;;23.98;;
56130;SDS011;42000;44.774;20.506;2023-01-09T16:14:56;43.03;;;23.45;;
56130;SDS011;42000;44.774;20.506;2023-01-09T16:17:24;57.25;;;29.45;;
56130;SDS011;42000;44.774;20.506;2023-01-09T16:24:48;39.65;;;20.88;;
56130;SDS011;42000;44.774;20.506;2023-01-09T16:27:28;41.17;;;21.67;;
56130;SDS011;42000;44.774;20.506;2023-01-09T16:30:01;33.65;;;19.25;;
56130;SDS011;42000;44.774;20.506;2023-01-09T16:32:31;35.85;;;19.25;;
56130;SDS011;42000;44.774;20.506;2023-01-09T16:35:01;34.38;;;19.05;;
56130;SDS011;42000;44.774;20.506;2023-01-09T16:37:29;37.40;;;20.13;;
56130;SDS011;42000;44.774;20.506;2023-01-09T16:40:41;38.28;;;20.60;;
56130;SDS011;42000;44.774;20.506;2023-01-09T16:42:42;38.65;;;20.80;;
56130;SDS011;42000;44.774;20.506;2023-01-09T16:45:40;36.70;;;19.05;;
56130;SDS011;42000;44.774;20.506;2023-01-09T16:48:14;38.53;;;20.15;;
56130;SDS011;42000;44.774;20.506;2023-01-09T16:50:41;36.45;;;19.70;;
56130;SDS011;42000;44.774;20.506;2023-01-09T16:53:14;36.50;;;19.60;;
56130;SDS011;42000;44.774;20.506;2023-01-09T16:55:40;37.10;;;18.45;;
56130;SDS011;42000;44.774;20.506;2023-01-09T16:58:07;36.55;;;18.42;;
56130;SDS011;42000;44.774;20.506;2023-01-09T17:00:37;31.52;;;17.58;;
56130;SDS011;42000;44.774;20.506;2023-01-09T17:03:03;35.03;;;18.10;;
56130;SDS011;42000;44.774;20.506;2023-01-09T17:05:29;33.83;;;18.08;;
56130;SDS011;42000;44.774;20.506;2023-01-09T17:07:55;35.38;;;18.98;;
56130;SDS011;42000;44.774;20.506;2023-01-09T17:10:21;33.63;;;19.00;;
56130;SDS011;42000;44.774;20.506;2023-01-09T17:12:47;32.33;;;18.27;;
56130;SDS011;42000;44.774;20.506;2023-01-09T17:15:13;34.17;;;19.65;;
56130;SDS011;42000;44.774;20.506;2023-01-09T17:17:40;38.88;;;20.40;;
56130;SDS011;42000;44.774;20.506;2023-01-09T17:20:13;40.50;;;21.30;;
56130;SDS011;42000;44.774;20.506;2023-01-09T17:22:39;41.47;;;22.20;;
56130;SDS011;42000;44.774;20.506;2023-01-09T17:25:05;43.13;;;22.10;;
56130;SDS011;42000;44.774;20.506;2023-01-09T17:27:50;42.30;;;22.40;;
56130;SDS011;42000;44.774;20.506;2023-01-09T17:30:35;47.30;;;23.30;;
56130;SDS011;42000;44.774;20.506;2023-01-09T17:33:01;45.83;;;23.70;;
56130;SDS011;42000;44.774;20.506;2023-01-09T17:35:28;44.33;;;23.42;;
56130;SDS011;42000;44.774;20.506;2023-01-09T17:37:54;42.88;;;22.15;;
56130;SDS011;42000;44.774;20.506;2023-01-09T17:40:21;38.40;;;21.25;;
56130;SDS011;42000;44.774;20.506;2023-01-09T17:42:47;40.53;;;21.40;;
56130;SDS011;42000;44.774;20.506;2023-01-09T17:45:13;37.38;;;20.42;;
56130;SDS011;42000;44.774;20.506;2023-01-09T17:47:40;43.40;;;21.35;;
56130;SDS011;42000;44.774;20.506;2023-01-09T17:50:06;38.60;;;20.63;;
56130;SDS011;42000;44.774;20.506;2023-01-09T17:52:32;39.83;;;20.85;;
56130;SDS011;42000;44.774;20.506;2023-01-09T17:54:58;42.92;;;22.13;;
56130;SDS011;42000;44.774;20.506;2023-01-09T17:57:29;41.17;;;22.80;;
56130;SDS011;42000;44.774;20.506;2023-01-09T17:59:55;43.67;;;23.35;;
56130;SDS011;42000;44.774;20.506;2023-01-09T18:02:21;44.30;;;24.83;;
56130;SDS011;42000;44.774;20.506;2023-01-09T18:04:47;46.30;;;25.00;;
56130;SDS011;42000;44.774;20.506;2023-01-09T18:07:14;53.92;;;28.35;;
56130;SDS011;42000;44.774;20.506;2023-01-09T18:09:41;55.42;;;27.30;;
56130;SDS011;42000;44.774;20.506;2023-01-09T18:12:07;59.47;;;29.17;;
56130;SDS011;42000;44.774;20.506;2023-01-09T18:14:33;48.80;;;22.92;;
56130;SDS011;42000;44.774;20.506;2023-01-09T18:16:59;41.72;;;21.83;;
56130;SDS011;42000;44.774;20.506;2023-01-09T18:19:26;35.58;;;19.80;;
56130;SDS011;42000;44.774;20.506;2023-01-09T18:21:53;45.03;;;19.55;;
56130;SDS011;42000;44.774;20.506;2023-01-09T18:24:19;40.05;;;20.27;;
56130;SDS011;42000;44.774;20.506;2023-01-09T18:26:45;33.47;;;19.27;;
56130;SDS011;42000;44.774;20.506;2023-01-09T18:29:11;35.95;;;19.05;;
56130;SDS011;42000;44.774;20.506;2023-01-09T18:31:38;32.75;;;18.80;;
56130;SDS011;42000;44.774;20.506;2023-01-09T18:34:04;31.08;;;16.45;;
56130;SDS011;42000;44.774;20.506;2023-01-09T18:36:31;29.00;;;16.52;;
56130;SDS011;42000;44.774;20.506;2023-01-09T18:38:58;31.42;;;16.80;;
56130;SDS011;42000;44.774;20.506;2023-01-09T18:41:24;30.95;;;16.88;;
56130;SDS011;42000;44.774;20.506;2023-01-09T18:43:51;32.28;;;15.02;;
56130;SDS011;42000;44.774;20.506;2023-01-09T18:46:18;30.00;;;16.45;;
56130;SDS011;42000;44.774;20.506;2023-01-09T18:48:51;28.35;;;16.50;;
56130;SDS011;42000;44.774;20.506;2023-01-09T18:51:18;30.70;;;15.80;;
56130;SDS011;42000;44.774;20.506;2023-01-09T18:53:44;25.92;;;14.95;;
56130;SDS011;42000;44.774;20.506;2023-01-09T18:56:10;25.23;;;14.30;;
56130;SDS011;42000;44.774;20.506;2023-01-09T18:58:36;26.63;;;15.18;;
56130;SDS011;42000;44.774;20.506;2023-01-09T19:01:02;24.70;;;13.45;;
56130;SDS011;42000;44.774;20.506;2023-01-09T19:03:28;25.15;;;14.60;;
56130;SDS011;42000;44.774;20.506;2023-01-09T19:06:01;25.00;;;14.82;;
56130;SDS011;42000;44.774;20.506;2023-01-09T19:08:29;26.02;;;15.65;;
56130;SDS011;42000;44.774;20.506;2023-01-09T19:10:56;29.42;;;16.30;;
56130;SDS011;42000;44.774;20.506;2023-01-09T19:13:23;25.90;;;15.38;;
56130;SDS011;42000;44.774;20.506;2023-01-09T19:15:53;29.20;;;15.30;;
56130;SDS011;42000;44.774;20.506;2023-01-09T19:18:20;27.30;;;15.23;;
56130;SDS011;42000;44.774;20.506;2023-01-09T19:20:46;30.00;;;15.82;;
56130;SDS011;42000;44.774;20.506;2023-01-09T19:23:12;29.00;;;16.10;;
56130;SDS011;42000;44.774;20.506;2023-01-09T19:25:40;27.55;;;14.95;;
56130;SDS011;42000;44.774;20.506;2023-01-09T19:28:06;27.73;;;15.70;;
56130;SDS011;42000;44.774;20.506;2023-01-09T19:30:32;27.42;;;15.85;;
56130;SDS011;42000;44.774;20.506;2023-01-09T19:33:01;27.20;;;15.70;;
56130;SDS011;42000;44.774;20.506;2023-01-09T19:35:27;26.90;;;15.52;;
56130;SDS011;42000;44.774;20.506;2023-01-09T19:37:53;32.42;;;16.58;;
56130;SDS011;42000;44.774;20.506;2023-01-09T19:40:19;29.27;;;16.10;;
56130;SDS011;42000;44.774;20.506;2023-01-09T19:42:45;28.70;;;16.58;;
56130;SDS011;42000;44.774;20.506;2023-01-09T19:45:11;26.20;;;13.75;;
56130;SDS011;42000;44.774;20.506;2023-01-09T19:47:37;25.05;;;14.05;;
56130;SDS011;42000;44.774;20.506;2023-01-09T19:50:04;25.45;;;13.40;;
56130;SDS011;42000;44.774;20.506;2023-01-09T19:52:32;24.48;;;13.43;;
56130;SDS011;42000;44.774;20.506;2023-01-09T19:54:58;23.45;;;14.13;;
56130;SDS011;42000;44.774;20.506;2023-01-09T19:57:24;25.63;;;14.00;;
56130;SDS011;42000;44.774;20.506;2023-01-09T19:59:50;26.23;;;14.02;;
56130;SDS011;42000;44.774;20.506;2023-01-09T20:02:16;23.95;;;14.25;;
56130;SDS011;42000;44.774;20.506;2023-01-09T20:04:42;25.58;;;13.73;;
56130;SDS011;42000;44.774;20.506;2023-01-09T20:07:08;24.45;;;14.02;;
56130;SDS011;42000;44.774;20.506;2023-01-09T20:09:34;21.35;;;12.23;;
56130;SDS011;42000;44.774;20.506;2023-01-09T20:12:01;24.08;;;13.25;;
56130;SDS011;42000;44.774;20.506;2023-01-09T20:14:29;23.48;;;13.25;;
56130;SDS011;42000;44.774;20.506;2023-01-09T20:16:55;27.90;;;14.73;;
56130;SDS011;42000;44.774;20.506;2023-01-09T20:19:25;24.35;;;13.63;;
56130;SDS011;42000;44.774;20.506;2023-01-09T20:21:54;22.17;;;12.77;;
56130;SDS011;42000;44.774;20.506;2023-01-09T20:24:20;24.67;;;13.93;;
56130;SDS011;42000;44.774;20.506;2023-01-09T20:26:46;23.27;;;12.85;;
56130;SDS011;42000;44.774;20.506;2023-01-09T20:29:12;23.17;;;12.93;;
56130;SDS011;42000;44.774;20.506;2023-01-09T20:31:38;27.33;;;14.18;;
56130;SDS011;42000;44.774;20.506;2023-01-09T20:34:04;25.33;;;13.70;;
56130;SDS011;42000;44.774;20.506;2023-01-09T20:36:30;22.00;;;13.23;;
56130;SDS011;42000;44.774;20.506;2023-01-09T20:38:57;23.23;;;13.18;;
56130;SDS011;42000;44.774;20.506;2023-01-09T20:41:23;24.63;;;13.52;;
56130;SDS011;42000;44.774;20.506;2023-01-09T20:43:54;27.25;;;14.02;;
56130;SDS011;42000;44.774;20.506;2023-01-09T20:46:21;25.58;;;14.55;;
56130;SDS011;42000;44.774;20.506;2023-01-09T20:48:47;25.73;;;13.82;;
56130;SDS011;42000;44.774;20.506;2023-01-09T20:51:13;25.52;;;13.35;;
56130;SDS011;42000;44.774;20.506;2023-01-09T20:53:43;25.95;;;13.88;;
56130;SDS011;42000;44.774;20.506;2023-01-09T20:56:09;24.92;;;13.95;;
56130;SDS011;42000;44.774;20.506;2023-01-09T20:58:35;26.27;;;12.77;;
56130;SDS011;42000;44.774;20.506;2023-01-09T21:01:08;23.05;;;12.73;;
56130;SDS011;42000;44.774;20.506;2023-01-09T21:03:35;23.73;;;13.30;;
56130;SDS011;42000;44.774;20.506;2023-01-09T21:06:05;20.98;;;12.70;;
56130;SDS011;42000;44.774;20.506;2023-01-09T21:08:31;26.15;;;11.45;;
56130;SDS011;42000;44.774;20.506;2023-01-09T21:10:57;19.65;;;11.00;;
56130;SDS011;42000;44.774;20.506;2023-01-09T21:13:24;20.73;;;11.13;;
56130;SDS011;42000;44.774;20.506;2023-01-09T21:15:50;17.85;;;10.30;;
56130;SDS011;42000;44.774;20.506;2023-01-09T21:18:16;19.05;;;10.70;;
56130;SDS011;42000;44.774;20.506;2023-01-09T21:20:42;18.25;;;9.80;;
56130;SDS011;42000;44.774;20.506;2023-01-09T21:23:08;17.73;;;10.23;;
56130;SDS011;42000;44.774;20.506;2023-01-09T21:25:38;20.30;;;10.60;;
56130;SDS011;42000;44.774;20.506;2023-01-09T21:28:04;17.92;;;10.32;;
56130;SDS011;42000;44.774;20.506;2023-01-09T21:30:31;16.08;;;9.85;;
56130;SDS011;42000;44.774;20.506;2023-01-09T21:32:57;18.65;;;10.40;;
56130;SDS011;42000;44.774;20.506;2023-01-09T21:35:23;17.20;;;10.60;;
56130;SDS011;42000;44.774;20.506;2023-01-09T21:37:49;21.15;;;11.70;;
56130;SDS011;42000;44.774;20.506;2023-01-09T21:40:16;17.83;;;10.18;;
56130;SDS011;42000;44.774;20.506;2023-01-09T21:42:42;21.95;;;11.30;;
56130;SDS011;42000;44.774;20.506;2023-01-09T21:45:27;20.23;;;10.45;;
56130;SDS011;42000;44.774;20.506;2023-01-09T21:48:11;17.45;;;10.73;;
56130;SDS011;42000;44.774;20.506;2023-01-09T21:50:38;16.13;;;10.05;;
56130;SDS011;42000;44.774;20.506;2023-01-09T21:53:07;17.75;;;10.18;;
56130;SDS011;42000;44.774;20.506;2023-01-09T21:55:34;18.67;;;10.15;;
56130;SDS011;42000;44.774;20.506;2023-01-09T21:58:00;18.55;;;10.00;;
56130;SDS011;42000;44.774;20.506;2023-01-09T22:00:27;20.17;;;10.80;;
56130;SDS011;42000;44.774;20.506;2023-01-09T22:02:53;17.40;;;10.35;;
56130;SDS011;42000;44.774;20.506;2023-01-09T22:05:19;18.75;;;10.82;;
56130;SDS011;42000;44.774;20.506;2023-01-09T22:07:46;17.85;;;10.65;;
56130;SDS011;42000;44.774;20.506;2023-01-09T22:10:12;20.38;;;11.85;;
56130;SDS011;42000;44.774;20.506;2023-01-09T22:12:38;19.58;;;10.82;;
56130;SDS011;42000;44.774;20.506;2023-01-09T22:15:24;20.65;;;11.50;;
56130;SDS011;42000;44.774;20.506;2023-01-09T22:17:50;19.50;;;10.50;;
56130;SDS011;42000;44.774;20.506;2023-01-09T22:20:16;20.27;;;10.75;;
56130;SDS011;42000;44.774;20.506;2023-01-09T22:22:42;20.20;;;11.55;;
56130;SDS011;42000;44.774;20.506;2023-01-09T22:25:08;18.02;;;10.80;;
56130;SDS011;42000;44.774;20.506;2023-01-09T22:27:34;16.70;;;9.68;;
56130;SDS011;42000;44.774;20.506;2023-01-09T22:30:01;19.52;;;10.25;;
56130;SDS011;42000;44.774;20.506;2023-01-09T22:32:27;20.17;;;10.80;;